Time;durP1;ratioP1;P1;durP2;ratioP2;P2;SDS_P1;SDS_P2;PMS_P1;PMS_P2;Temp;Humidity;BMP_temperature;BMP_pressure;BME280_temperature;BME280_humidity;BME280_pressure;Samples;Min_cycle;Max_cycle;Signal;HPM_P1;HPM_P2
2022/11/01 00:01:51;;;;;;;8.30;4.18;;;17.30;99.90;;;;;;5097929;28;20032;-76
2022/11/01 00:04:18;;;;;;;10.10;4.35;;;17.30;99.90;;;;;;5098696;28;20410;-70
2022/11/01 00:06:44;;;;;;;8.05;4.80;;;17.30;99.90;;;;;;5064171;28;20288;-74
2022/11/01 00:09:10;;;;;;;6.70;3.88;;;17.30;99.90;;;;;;5098011;28;20039;-73
2022/11/01 00:11:36;;;;;;;7.88;3.92;;;17.30;99.90;;;;;;5098534;28;20048;-72
2022/11/01 00:14:02;;;;;;;9.90;4.50;;;17.30;99.90;;;;;;5097993;28;20032;-71
2022/11/01 00:16:28;;;;;;;7.60;3.95;;;17.30;99.90;;;;;;5097986;28;20089;-71
2022/11/01 00:18:54;;;;;;;8.00;4.40;;;17.30;99.90;;;;;;5081115;28;20028;-75
2022/11/01 00:21:20;;;;;;;10.82;4.30;;;17.40;99.90;;;;;;5080831;28;20500;-73
2022/11/01 00:23:46;;;;;;;7.30;4.47;;;17.40;99.90;;;;;;5097748;28;20075;-74
2022/11/01 00:26:18;;;;;;;10.13;4.38;;;17.30;99.90;;;;;;5097722;28;20093;-69
2022/11/01 00:28:44;;;;;;;10.82;4.22;;;17.40;99.90;;;;;;5098183;28;20020;-72
2022/11/01 00:31:11;;;;;;;9.40;4.18;;;17.30;99.90;;;;;;5098145;28;20056;-71
2022/11/01 00:33:38;;;;;;;10.27;3.88;;;17.30;99.90;;;;;;5098233;28;20032;-72
2022/11/01 00:36:05;;;;;;;10.70;4.55;;;17.30;99.90;;;;;;5097426;28;20071;-74
2022/11/01 00:38:31;;;;;;;8.95;4.28;;;17.30;99.90;;;;;;5098079;28;20043;-73
2022/11/01 00:40:57;;;;;;;7.93;3.72;;;17.40;99.90;;;;;;5097456;28;20043;-72
2022/11/01 00:43:23;;;;;;;7.15;3.95;;;17.40;99.90;;;;;;5097745;28;20307;-72
2022/11/01 00:45:49;;;;;;;5.53;4.00;;;17.50;99.90;;;;;;5096803;28;20126;-73
2022/11/01 00:48:15;;;;;;;7.40;3.78;;;17.50;99.90;;;;;;5097962;28;20032;-70
2022/11/01 00:50:41;;;;;;;9.18;3.78;;;17.60;99.90;;;;;;5097931;28;20024;-75
2022/11/01 00:53:10;;;;;;;7.63;3.70;;;17.70;99.90;;;;;;5096856;28;20349;-73
2022/11/01 00:55:35;;;;;;;7.32;3.60;;;17.70;99.90;;;;;;5097768;28;20086;-74
2022/11/01 00:58:01;;;;;;;8.45;3.78;;;17.80;99.90;;;;;;5096974;28;20362;-69
2022/11/01 01:00:27;;;;;;;5.35;3.50;;;17.80;99.90;;;;;;5097993;28;20129;-73
2022/11/01 01:02:53;;;;;;;8.10;3.53;;;17.80;99.90;;;;;;5096633;28;20028;-72
2022/11/01 01:05:18;;;;;;;8.15;3.30;;;17.80;99.90;;;;;;5097376;28;20032;-73
2022/11/01 01:07:44;;;;;;;8.95;3.60;;;17.80;99.90;;;;;;5063119;28;20042;-70
2022/11/01 01:10:10;;;;;;;11.00;3.90;;;17.90;99.90;;;;;;5097965;28;20028;-72
2022/11/01 01:12:36;;;;;;;9.65;3.40;;;17.90;99.90;;;;;;5080300;28;20032;-75
2022/11/01 01:15:02;;;;;;;6.55;3.35;;;17.90;99.90;;;;;;5097806;28;20185;-74
2022/11/01 01:17:28;;;;;;;7.45;3.50;;;17.90;99.90;;;;;;5097450;28;20047;-77
2022/11/01 01:19:53;;;;;;;11.10;3.60;;;17.90;99.90;;;;;;5097124;28;20027;-75
2022/11/01 01:22:19;;;;;;;7.80;3.40;;;17.90;99.90;;;;;;5097267;28;20059;-71
2022/11/01 01:24:46;;;;;;;7.40;3.33;;;17.90;99.90;;;;;;5079854;28;20040;-70
2022/11/01 01:27:16;;;;;;;6.75;3.40;;;17.90;99.90;;;;;;5097119;28;20043;-70
2022/11/01 01:29:43;;;;;;;7.90;3.80;;;17.80;99.90;;;;;;5097427;28;20016;-69
2022/11/01 01:32:17;;;;;;;5.20;3.30;;;17.80;99.90;;;;;;5097264;28;20047;-73
2022/11/01 01:34:43;;;;;;;7.80;3.42;;;17.80;99.90;;;;;;5096651;28;20330;-74
2022/11/01 01:37:09;;;;;;;9.80;3.67;;;17.80;99.90;;;;;;5096340;28;20041;-74
2022/11/01 01:39:36;;;;;;;7.05;2.90;;;17.70;99.90;;;;;;5096092;28;20036;-71
2022/11/01 01:42:29;;;;;;;9.70;3.45;;;17.70;99.90;;;;;;5097615;28;20024;-74
2022/11/01 01:44:55;;;;;;;7.35;3.88;;;17.70;99.90;;;;;;5096888;28;20031;-75
2022/11/01 01:47:25;;;;;;;7.72;3.50;;;17.80;99.90;;;;;;5096563;28;20279;-74
2022/11/01 01:50:09;;;;;;;7.78;3.38;;;17.70;99.90;;;;;;5096780;28;20025;-70
2022/11/01 01:53:01;;;;;;;7.88;2.80;;;17.60;99.90;;;;;;5096044;28;20031;-71
2022/11/01 01:55:44;;;;;;;5.47;2.80;;;17.60;99.90;;;;;;5085667;28;20076;-74
2022/11/01 01:58:12;;;;;;;10.48;2.95;;;17.50;99.90;;;;;;5095734;28;20048;-71
2022/11/01 02:00:38;;;;;;;7.72;3.00;;;17.50;99.90;;;;;;5079382;28;20139;-75
2022/11/01 02:03:06;;;;;;;5.38;2.85;;;17.50;99.90;;;;;;5062557;28;20036;-73
2022/11/01 02:05:45;;;;;;;7.47;2.92;;;17.50;99.90;;;;;;5096081;28;20107;-75
2022/11/01 02:08:13;;;;;;;5.68;2.50;;;17.50;99.90;;;;;;5096377;28;20363;-70
2022/11/01 02:10:39;;;;;;;4.72;2.75;;;17.50;99.90;;;;;;5097236;28;20310;-74
2022/11/01 02:13:13;;;;;;;5.35;2.45;;;17.50;99.90;;;;;;5097164;28;20044;-71
2022/11/01 02:16:06;;;;;;;4.03;1.50;;;17.50;99.90;;;;;;5096298;28;20298;-67
2022/11/01 02:18:55;;;;;;;;;;;17.40;99.90;;;;;;5096521;28;20101;-75
2022/11/01 02:21:37;;;;;;;6.57;1.30;;;17.20;99.90;;;;;;5068030;28;20006;-69
2022/11/01 02:24:31;;;;;;;1.25;1.00;;;17.10;99.90;;;;;;5097095;28;20052;-68
2022/11/01 02:27:07;;;;;;;2.65;0.90;;;16.90;99.90;;;;;;5096285;28;20032;-64
2022/11/01 02:30:04;;;;;;;1.42;0.70;;;16.80;99.90;;;;;;5096781;28;20375;-72
2022/11/01 02:33:21;;;;;;;4.03;0.88;;;16.70;99.90;;;;;;5097273;28;20032;-74
2022/11/01 02:35:53;;;;;;;1.60;0.70;;;16.60;99.90;;;;;;5084987;28;20055;-67
2022/11/01 02:39:18;;;;;;;4.05;0.63;;;16.60;99.90;;;;;;5096425;28;20020;-72
2022/11/01 02:41:58;;;;;;;3.08;0.60;;;16.40;99.90;;;;;;5015412;28;20114;-73
2022/11/01 02:44:35;;;;;;;3.90;0.80;;;16.30;99.90;;;;;;5032358;28;20117;-73
2022/11/01 02:47:02;;;;;;;2.38;0.55;;;16.30;99.90;;;;;;5107486;28;20097;-73
2022/11/01 02:49:42;;;;;;;1.48;0.55;;;16.20;99.90;;;;;;5096379;28;20035;-75
2022/11/01 02:52:13;;;;;;;1.92;0.70;;;16.10;99.90;;;;;;5099364;28;20039;-73
2022/11/01 02:54:45;;;;;;;3.85;0.70;;;16.00;99.90;;;;;;5099351;28;20059;-70
2022/11/01 02:57:31;;;;;;;2.72;0.65;;;16.00;99.90;;;;;;5098884;28;20047;-75
2022/11/01 03:00:03;;;;;;;4.97;0.88;;;15.90;99.90;;;;;;5082306;28;20043;-71
2022/11/01 03:02:40;;;;;;;3.90;0.70;;;15.80;99.90;;;;;;5082289;28;20036;-71
2022/11/01 03:05:20;;;;;;;1.83;0.52;;;15.80;99.90;;;;;;5082119;28;20039;-71
2022/11/01 03:07:50;;;;;;;2.08;0.47;;;15.70;99.90;;;;;;5099309;28;20093;-73
2022/11/01 03:10:19;;;;;;;3.55;0.50;;;15.60;99.90;;;;;;5098855;28;20043;-73
2022/11/01 03:13:13;;;;;;;1.60;0.50;;;15.60;99.90;;;;;;5099192;28;20031;-72
2022/11/01 03:15:50;;;;;;;1.95;0.40;;;15.50;99.90;;;;;;5098718;28;20028;-75
2022/11/01 03:18:41;;;;;;;2.88;0.30;;;15.50;99.90;;;;;;5099702;28;20327;-71
2022/11/01 03:21:15;;;;;;;2.20;0.50;;;15.50;99.90;;;;;;5098895;28;20050;-75
2022/11/01 03:23:54;;;;;;;1.60;0.50;;;15.30;99.90;;;;;;5100040;28;20024;-75
2022/11/01 03:26:26;;;;;;;1.30;0.40;;;15.30;99.90;;;;;;5098734;28;20028;-76
2022/11/01 03:28:58;;;;;;;4.15;0.77;;;15.30;99.90;;;;;;5082026;28;20042;-74
2022/11/01 03:31:30;;;;;;;1.67;0.60;;;15.30;99.90;;;;;;5099319;28;20448;-73
2022/11/01 03:34:00;;;;;;;3.53;0.52;;;15.30;99.90;;;;;;5099153;28;20102;-75
2022/11/01 03:36:33;;;;;;;1.20;0.40;;;15.20;99.90;;;;;;5082139;28;20032;-74
2022/11/01 03:39:12;;;;;;;5.03;0.70;;;15.20;99.90;;;;;;5098507;28;20024;-74
2022/11/01 03:41:42;;;;;;;2.92;0.50;;;15.20;99.90;;;;;;5098989;28;20111;-75
2022/11/01 03:44:10;;;;;;;2.03;0.40;;;15.30;99.90;;;;;;5099513;28;20032;-75
2022/11/01 03:46:36;;;;;;;4.55;0.82;;;15.20;99.90;;;;;;5099123;28;20366;-70
2022/11/01 03:49:02;;;;;;;3.97;0.57;;;15.20;99.90;;;;;;5098957;28;20021;-74
2022/11/01 03:51:28;;;;;;;4.63;0.70;;;15.20;99.90;;;;;;5099129;28;20115;-70
2022/11/01 03:53:53;;;;;;;3.75;0.60;;;15.10;99.90;;;;;;5098578;28;20032;-74
2022/11/01 03:56:20;;;;;;;2.90;0.80;;;15.10;99.90;;;;;;5099031;28;20029;-72
2022/11/01 03:58:46;;;;;;;3.72;0.80;;;15.10;99.90;;;;;;5064782;28;20056;-75
2022/11/01 04:01:14;;;;;;;3.97;0.73;;;15.00;99.90;;;;;;5097453;28;20101;-73
2022/11/01 04:03:40;;;;;;;3.40;0.57;;;15.00;99.90;;;;;;5098730;28;20031;-73
2022/11/01 04:06:06;;;;;;;1.70;0.60;;;15.00;99.90;;;;;;5098043;28;20036;-75
2022/11/01 04:08:33;;;;;;;1.80;0.55;;;15.00;99.90;;;;;;5080979;28;20024;-71
2022/11/01 04:10:59;;;;;;;3.03;0.55;;;14.90;99.90;;;;;;5098429;28;20032;-66
2022/11/01 04:13:24;;;;;;;3.15;0.40;;;14.90;99.90;;;;;;5098636;28;20021;-69
2022/11/01 04:21:21;;;;;;;2.70;0.45;;;14.80;99.90;;;;;;5098521;28;20043;-75
2022/11/01 04:23:48;;;;;;;5.57;0.85;;;14.80;99.90;;;;;;5097592;28;20020;-72
2022/11/01 04:26:19;;;;;;;7.78;0.70;;;14.80;99.90;;;;;;5098472;28;20138;-69
2022/11/01 04:28:55;;;;;;;3.80;0.80;;;14.60;99.90;;;;;;5097774;28;20053;-70
2022/11/01 04:31:22;;;;;;;6.35;1.08;;;14.60;99.90;;;;;;5097994;28;20069;-74
2022/11/01 04:33:48;;;;;;;4.70;0.60;;;14.70;99.90;;;;;;5081752;28;20051;-74
2022/11/01 04:36:14;;;;;;;7.53;0.88;;;14.60;99.90;;;;;;5098219;28;20121;-75
2022/11/01 04:38:40;;;;;;;5.13;0.63;;;14.50;99.90;;;;;;5064577;28;20047;-71
2022/11/01 04:41:05;;;;;;;7.40;1.00;;;14.50;99.90;;;;;;5080794;28;20094;-73
2022/11/01 04:43:31;;;;;;;5.47;0.82;;;14.40;99.90;;;;;;5080757;28;20318;-74
2022/11/01 04:45:57;;;;;;;3.97;0.60;;;14.40;99.90;;;;;;5097898;28;20059;-74
2022/11/01 04:48:23;;;;;;;2.65;0.60;;;14.30;99.90;;;;;;5063840;28;20066;-75
2022/11/01 04:50:49;;;;;;;5.25;0.68;;;14.30;99.90;;;;;;5096890;28;20040;-75
2022/11/01 04:53:15;;;;;;;4.07;1.00;;;14.10;99.90;;;;;;5079982;28;20032;-74
2022/11/01 04:55:40;;;;;;;8.20;0.93;;;14.10;99.90;;;;;;5097341;28;20372;-72
2022/11/01 04:58:08;;;;;;;4.03;0.80;;;14.10;99.90;;;;;;5080268;28;20304;-74
2022/11/01 05:00:34;;;;;;;6.85;0.80;;;14.10;99.90;;;;;;5096765;28;20111;-69
2022/11/01 05:03:01;;;;;;;3.45;0.80;;;14.10;99.90;;;;;;5097541;28;20059;-77
2022/11/01 05:05:27;;;;;;;5.13;0.80;;;14.10;99.90;;;;;;5097188;28;20036;-77
2022/11/01 05:08:18;;;;;;;4.55;0.88;;;14.10;99.90;;;;;;5097411;28;20043;-73
2022/11/01 05:10:44;;;;;;;6.15;0.90;;;14.00;99.90;;;;;;5096695;28;20039;-75
2022/11/01 05:13:11;;;;;;;5.18;0.90;;;14.10;99.90;;;;;;5079763;28;20032;-71
2022/11/01 05:15:37;;;;;;;4.90;0.90;;;14.00;99.90;;;;;;5097714;28;20334;-76
2022/11/01 05:18:03;;;;;;;5.50;1.00;;;14.00;99.90;;;;;;5097223;28;20036;-68
2022/11/01 05:20:30;;;;;;;3.35;1.25;;;14.00;99.90;;;;;;5096887;28;20035;-71
2022/11/01 05:23:00;;;;;;;7.10;0.60;;;14.00;99.90;;;;;;5097629;28;20075;-74
2022/11/01 05:25:26;;;;;;;4.25;0.68;;;13.90;99.90;;;;;;5097018;28;20112;-72
2022/11/01 05:27:58;;;;;;;8.50;1.10;;;13.80;99.90;;;;;;5097153;28;20031;-75
2022/11/01 05:30:24;;;;;;;2.90;0.60;;;13.80;99.90;;;;;;5098085;28;20257;-73
2022/11/01 05:32:56;;;;;;;6.95;0.70;;;13.80;99.90;;;;;;5063441;28;20101;-71
2022/11/01 05:35:22;;;;;;;6.28;1.25;;;13.80;99.90;;;;;;5097063;28;20097;-65
2022/11/01 05:37:47;;;;;;;6.45;1.10;;;13.70;99.90;;;;;;5097324;28;20035;-75
2022/11/01 05:40:13;;;;;;;5.72;0.80;;;13.70;99.90;;;;;;5080522;28;20036;-75
2022/11/01 05:42:39;;;;;;;5.68;1.13;;;13.70;99.90;;;;;;5079936;28;20123;-75
2022/11/01 05:45:05;;;;;;;4.32;0.70;;;13.60;99.90;;;;;;5097361;28;20303;-75
2022/11/01 05:47:32;;;;;;;8.38;1.17;;;13.60;99.90;;;;;;5097039;28;20059;-74
2022/11/01 05:49:57;;;;;;;4.60;0.93;;;13.60;99.90;;;;;;5080060;28;20032;-73
2022/11/01 05:52:23;;;;;;;2.63;0.80;;;13.50;99.90;;;;;;5096454;28;20066;-77
2022/11/01 05:54:49;;;;;;;6.10;1.30;;;13.50;99.90;;;;;;5097174;28;20361;-77
2022/11/01 05:57:15;;;;;;;5.10;1.10;;;13.50;99.90;;;;;;5097609;28;20048;-74
2022/11/01 05:59:40;;;;;;;7.10;0.93;;;13.40;99.90;;;;;;5079677;28;20032;-75
2022/11/01 06:02:06;;;;;;;7.35;1.15;;;13.40;99.90;;;;;;5062880;28;20093;-68
2022/11/01 06:04:32;;;;;;;10.63;1.27;;;13.40;99.90;;;;;;5096380;28;20050;-72
2022/11/01 06:06:58;;;;;;;6.10;0.80;;;13.40;99.90;;;;;;5079707;28;20115;-72
2022/11/01 06:09:23;;;;;;;5.45;0.70;;;13.30;99.90;;;;;;5097124;28;20350;-73
2022/11/01 06:11:49;;;;;;;5.22;0.90;;;13.30;99.90;;;;;;5096916;28;20039;-68
2022/11/01 06:14:15;;;;;;;7.45;1.15;;;13.30;99.90;;;;;;5062668;28;20300;-72
2022/11/01 06:16:42;;;;;;;9.23;1.40;;;13.20;99.90;;;;;;5096412;28;20108;-74
2022/11/01 06:19:08;;;;;;;4.30;0.90;;;13.20;99.90;;;;;;5097549;28;20040;-72
2022/11/01 06:21:34;;;;;;;8.95;1.10;;;13.10;99.90;;;;;;5079284;28;20403;-72
2022/11/01 06:24:00;;;;;;;4.65;1.20;;;13.10;99.90;;;;;;5096798;28;20044;-68
2022/11/01 06:26:25;;;;;;;5.75;1.00;;;13.00;99.90;;;;;;5099224;28;20115;-73
2022/11/01 06:28:51;;;;;;;9.35;1.38;;;13.00;99.90;;;;;;5100197;28;20446;-68
2022/11/01 06:31:17;;;;;;;12.63;1.52;;;13.00;99.90;;;;;;5100047;28;20365;-70
2022/11/01 06:33:42;;;;;;;8.50;1.17;;;12.90;99.90;;;;;;5100125;28;20035;-69
2022/11/01 06:36:08;;;;;;;6.75;1.27;;;12.90;99.90;;;;;;5083308;28;20074;-74
2022/11/01 06:38:34;;;;;;;7.25;1.23;;;12.90;99.90;;;;;;5100641;28;20028;-70
2022/11/01 06:41:00;;;;;;;11.13;1.65;;;12.80;99.90;;;;;;5100301;28;20043;-71
2022/11/01 06:43:26;;;;;;;10.32;1.42;;;12.80;99.90;;;;;;5099885;28;20390;-72
2022/11/01 06:45:52;;;;;;;11.85;1.42;;;12.80;99.90;;;;;;5100851;28;20027;-75
2022/11/01 06:48:17;;;;;;;8.90;1.00;;;12.80;99.90;;;;;;5099934;28;20032;-73
2022/11/01 06:50:43;;;;;;;4.30;1.20;;;12.70;99.90;;;;;;5100208;28;20028;-67
2022/11/01 06:53:09;;;;;;;8.05;1.30;;;12.70;99.90;;;;;;5100670;28;20284;-72
2022/11/01 06:55:35;;;;;;;3.92;0.90;;;12.60;99.90;;;;;;5099465;28;20051;-72
2022/11/01 06:58:02;;;;;;;13.75;1.55;;;12.60;99.90;;;;;;5100490;28;20342;-71
2022/11/01 07:00:29;;;;;;;8.45;1.30;;;12.60;99.90;;;;;;5099462;28;20395;-67
2022/11/01 07:03:04;;;;;;;8.32;1.40;;;12.60;99.90;;;;;;5100615;28;20036;-72
2022/11/01 07:05:35;;;;;;;7.57;1.67;;;12.60;99.90;;;;;;5099525;28;20072;-72
2022/11/01 07:08:01;;;;;;;10.07;1.42;;;12.60;99.90;;;;;;5099449;28;20407;-76
2022/11/01 07:10:27;;;;;;;10.52;1.25;;;12.60;99.90;;;;;;5100325;28;20020;-71
2022/11/01 07:13:00;;;;;;;11.90;1.23;;;12.60;99.90;;;;;;5100346;28;20337;-69
2022/11/01 07:15:27;;;;;;;12.27;1.35;;;12.60;99.90;;;;;;5084117;28;20366;-73
2022/11/01 07:18:01;;;;;;;11.50;1.33;;;12.60;99.90;;;;;;5100143;28;20024;-74
2022/11/01 07:20:28;;;;;;;10.80;1.67;;;12.60;99.90;;;;;;5100313;28;20055;-74
2022/11/01 07:23:01;;;;;;;10.30;1.75;;;12.60;99.90;;;;;;5082204;28;20130;-74
2022/11/01 07:25:28;;;;;;;8.57;1.17;;;12.50;99.90;;;;;;5101224;28;20459;-76
2022/11/01 07:27:55;;;;;;;8.10;1.58;;;12.50;99.90;;;;;;5099042;28;20058;-72
2022/11/01 07:30:20;;;;;;;6.85;1.00;;;12.50;99.90;;;;;;5100112;28;20047;-74
2022/11/01 07:32:46;;;;;;;10.98;1.25;;;12.50;99.90;;;;;;5100030;28;20387;-74
2022/11/01 07:35:12;;;;;;;7.82;1.10;;;12.60;99.90;;;;;;5082520;28;20339;-74
2022/11/01 07:37:38;;;;;;;10.60;1.80;;;12.60;99.90;;;;;;5065142;28;20032;-75
2022/11/01 07:40:05;;;;;;;6.55;1.23;;;12.60;99.90;;;;;;5098825;28;20069;-76
2022/11/01 07:42:31;;;;;;;8.55;1.50;;;12.50;99.90;;;;;;5099302;28;20031;-74
2022/11/01 07:44:56;;;;;;;16.52;2.00;;;12.50;99.90;;;;;;5099408;28;20032;-75
2022/11/01 07:47:22;;;;;;;11.98;1.95;;;12.50;99.90;;;;;;5099297;28;20036;-71
2022/11/01 07:49:49;;;;;;;7.57;1.45;;;12.60;99.90;;;;;;5082136;28;20431;-74
2022/11/01 07:52:15;;;;;;;6.15;1.33;;;12.60;99.90;;;;;;5099473;28;20318;-73
2022/11/01 07:54:41;;;;;;;10.65;1.88;;;12.60;99.90;;;;;;5099175;28;20028;-73
2022/11/01 07:57:07;;;;;;;12.27;1.92;;;12.60;99.90;;;;;;5081364;28;20059;-74
2022/11/01 07:59:33;;;;;;;7.65;1.20;;;12.70;99.90;;;;;;5099168;28;20098;-72
2022/11/01 08:01:59;;;;;;;12.98;1.17;;;12.70;99.90;;;;;;5099691;28;20373;-73
2022/11/01 08:04:25;;;;;;;5.22;1.13;;;12.70;99.90;;;;;;5099003;28;20319;-72
2022/11/01 08:06:51;;;;;;;12.85;1.73;;;12.80;99.90;;;;;;5098054;28;20028;-71
2022/11/01 08:09:17;;;;;;;7.35;1.30;;;12.80;99.90;;;;;;5098765;28;20406;-71
2022/11/01 08:11:42;;;;;;;9.73;1.65;;;12.80;99.90;;;;;;5098133;28;20422;-70
2022/11/01 08:14:08;;;;;;;6.97;1.52;;;12.80;99.90;;;;;;5099477;28;20024;-74
2022/11/01 08:16:34;;;;;;;8.07;1.50;;;12.80;99.90;;;;;;5098687;28;20280;-73
2022/11/01 08:19:00;;;;;;;13.60;1.70;;;12.80;99.90;;;;;;5097918;28;20042;-72
2022/11/01 08:21:26;;;;;;;12.27;1.65;;;12.80;99.90;;;;;;5081329;28;20028;-73
2022/11/01 08:23:51;;;;;;;11.18;2.08;;;12.80;99.90;;;;;;5098647;28;20032;-75
2022/11/01 08:26:17;;;;;;;18.23;1.77;;;12.90;99.90;;;;;;5097860;28;20031;-74
2022/11/01 08:28:43;;;;;;;9.85;1.60;;;12.90;99.90;;;;;;5098601;28;20023;-73
2022/11/01 08:31:09;;;;;;;7.00;1.17;;;12.90;99.90;;;;;;5064629;28;20414;-74
2022/11/01 08:33:35;;;;;;;10.43;1.58;;;12.90;99.90;;;;;;5081435;28;20322;-73
2022/11/01 08:36:01;;;;;;;12.60;1.70;;;13.00;99.90;;;;;;5098557;28;20102;-74
2022/11/01 08:38:27;;;;;;;11.27;1.60;;;13.00;99.90;;;;;;5098163;28;20103;-69
2022/11/01 08:40:53;;;;;;;10.60;1.67;;;13.10;99.90;;;;;;5081151;28;20028;-71
2022/11/01 08:43:19;;;;;;;13.32;1.70;;;13.10;99.90;;;;;;5098777;28;20032;-71
2022/11/01 08:45:46;;;;;;;11.93;2.00;;;13.10;99.90;;;;;;5080906;28;20072;-71
2022/11/01 08:48:12;;;;;;;16.00;2.22;;;13.10;99.90;;;;;;5097026;28;20127;-76
2022/11/01 08:50:38;;;;;;;10.43;1.80;;;13.20;99.90;;;;;;5080905;28;20036;-71
2022/11/01 08:53:13;;;;;;;11.07;1.38;;;13.20;99.90;;;;;;5097985;28;20030;-74
2022/11/01 08:55:40;;;;;;;15.48;1.88;;;13.20;99.90;;;;;;5098260;28;20287;-69
2022/11/01 08:58:07;;;;;;;13.13;1.85;;;13.20;99.90;;;;;;5098220;28;20498;-75
2022/11/01 09:00:34;;;;;;;10.23;1.45;;;13.30;99.90;;;;;;5098185;28;20310;-68
2022/11/01 09:02:59;;;;;;;11.02;1.58;;;13.30;99.90;;;;;;5098522;28;20067;-74
2022/11/01 09:05:27;;;;;;;9.18;1.63;;;13.40;99.90;;;;;;5097758;28;20040;-73
2022/11/01 09:07:57;;;;;;;11.77;2.13;;;13.50;99.90;;;;;;5097156;28;20040;-71
2022/11/01 09:10:24;;;;;;;9.32;1.83;;;13.50;99.90;;;;;;5097648;28;20036;-70
2022/11/01 09:12:50;;;;;;;10.52;1.75;;;13.50;99.90;;;;;;5097181;28;20055;-75
2022/11/01 09:15:15;;;;;;;12.00;1.70;;;13.50;99.90;;;;;;5080779;28;20329;-74
2022/11/01 09:17:41;;;;;;;5.18;1.25;;;13.50;99.90;;;;;;5097744;28;20060;-69
2022/11/01 09:20:08;;;;;;;8.10;1.60;;;13.60;99.90;;;;;;5097702;28;20036;-76
2022/11/01 09:22:38;;;;;;;9.00;1.77;;;13.70;99.90;;;;;;5096947;28;20042;-73
2022/11/01 09:25:04;;;;;;;11.57;1.95;;;13.70;99.90;;;;;;5097744;28;20023;-73
2022/11/01 09:27:30;;;;;;;11.98;2.08;;;13.80;99.90;;;;;;5096857;28;20032;-76
2022/11/01 09:29:56;;;;;;;8.68;1.73;;;13.80;99.90;;;;;;5096482;28;20032;-76
2022/11/01 09:32:22;;;;;;;12.13;1.73;;;13.90;99.90;;;;;;5097554;28;20039;-74
2022/11/01 09:34:48;;;;;;;10.88;1.58;;;14.00;99.90;;;;;;5097719;28;20032;-73
2022/11/01 09:37:15;;;;;;;10.30;1.83;;;14.00;99.90;;;;;;5097488;28;20036;-67
2022/11/01 09:39:40;;;;;;;14.45;1.95;;;14.10;99.90;;;;;;5097362;28;20036;-75
2022/11/01 09:42:21;;;;;;;8.10;1.30;;;14.20;99.90;;;;;;5097298;28;20036;-72
2022/11/01 09:44:51;;;;;;;9.00;1.42;;;14.20;99.90;;;;;;5097609;28;20028;-70
2022/11/01 09:47:22;;;;;;;13.38;1.67;;;14.20;99.90;;;;;;5097264;28;20028;-74
2022/11/01 09:50:01;;;;;;;8.98;1.52;;;14.30;99.90;;;;;;5097242;28;20024;-75
2022/11/01 09:52:27;;;;;;;7.65;1.20;;;14.40;99.90;;;;;;5096571;28;20032;-74
2022/11/01 09:54:53;;;;;;;8.80;1.50;;;14.70;99.90;;;;;;5097385;28;20040;-66
2022/11/01 09:57:35;;;;;;;5.07;1.40;;;14.90;99.90;;;;;;5096309;28;20086;-71
2022/11/01 10:00:03;;;;;;;13.25;2.25;;;15.00;99.90;;;;;;5099791;28;20044;-72
2022/11/01 10:02:49;;;;;;;8.23;1.30;;;15.00;99.90;;;;;;5101271;28;20028;-71
2022/11/01 10:05:27;;;;;;;6.50;1.38;;;15.40;99.90;;;;;;5101596;28;20268;-73
2022/11/01 10:08:26;;;;;;;9.13;1.30;;;15.50;99.90;;;;;;5100748;28;20035;-69
2022/11/01 10:11:18;;;;;;;7.05;1.70;;;15.40;99.90;;;;;;5101062;28;20024;-70
2022/11/01 10:13:55;;;;;;;8.60;1.23;;;15.60;99.90;;;;;;5100996;28;20357;-71
2022/11/01 10:16:40;;;;;;;8.95;1.70;;;15.70;99.90;;;;;;5100982;28;20320;-75
2022/11/01 10:19:17;;;;;;;5.00;1.30;;;15.70;99.90;;;;;;5100950;28;20028;-74
2022/11/01 10:21:53;;;;;;;7.82;1.58;;;15.80;99.90;;;;;;5100375;28;20032;-67
2022/11/01 10:24:43;;;;;;;6.70;1.52;;;15.90;99.90;;;;;;5101129;28;20029;-71
2022/11/01 10:27:28;;;;;;;6.55;1.00;;;16.10;99.90;;;;;;5101106;28;20268;-73
2022/11/01 10:30:05;;;;;;;11.45;1.40;;;16.50;99.90;;;;;;5083030;28;20027;-73
2022/11/01 10:32:44;;;;;;;8.98;1.75;;;16.30;99.90;;;;;;5100204;28;20119;-74
2022/11/01 10:35:19;;;;;;;6.95;1.63;;;16.40;99.90;;;;;;5099943;28;20036;-72
2022/11/01 10:38:13;;;;;;;8.30;1.42;;;16.10;99.90;;;;;;5100453;28;20071;-71
2022/11/01 10:40:54;;;;;;;5.93;1.48;;;16.40;99.90;;;;;;5100103;28;20051;-68
2022/11/01 10:43:23;;;;;;;8.65;1.55;;;16.10;99.90;;;;;;5100156;28;20055;-75
2022/11/01 10:45:54;;;;;;;6.72;1.50;;;16.00;99.90;;;;;;5100677;28;20032;-74
2022/11/01 10:48:43;;;;;;;6.07;1.30;;;16.40;99.90;;;;;;5099704;28;20330;-74
2022/11/01 10:51:09;;;;;;;4.75;1.52;;;16.90;99.90;;;;;;5099687;28;20024;-72
2022/11/01 10:53:52;;;;;;;10.35;1.70;;;16.70;99.90;;;;;;5099559;28;20074;-74
2022/11/01 10:56:25;;;;;;;6.78;1.50;;;16.70;99.90;;;;;;5100597;28;20024;-73
2022/11/01 10:59:01;;;;;;;5.45;1.20;;;16.90;99.90;;;;;;5100189;28;20423;-74
2022/11/01 11:01:33;;;;;;;6.50;1.45;;;16.70;99.90;;;;;;5099570;28;20095;-74
2022/11/01 11:04:01;;;;;;;6.57;1.35;;;16.80;99.90;;;;;;5082442;28;20051;-68
2022/11/01 11:06:27;;;;;;;6.70;1.10;;;17.00;99.90;;;;;;5099522;28;20032;-71
2022/11/01 11:08:55;;;;;;;6.40;1.58;;;16.90;99.90;;;;;;5082294;28;20043;-73
2022/11/01 11:11:39;;;;;;;9.82;1.50;;;17.10;99.90;;;;;;5098561;28;20032;-72
2022/11/01 11:14:07;;;;;;;7.82;1.67;;;17.10;99.90;;;;;;5099948;28;20024;-73
2022/11/01 11:16:47;;;;;;;4.82;1.20;;;17.00;99.90;;;;;;5099375;28;20294;-71
2022/11/01 11:19:21;;;;;;;10.73;1.48;;;17.10;99.90;;;;;;5100099;28;20399;-71
2022/11/01 11:21:48;;;;;;;9.98;1.60;;;16.80;99.90;;;;;;5099055;28;20024;-74
2022/11/01 11:24:45;;;;;;;7.43;1.30;;;16.90;99.90;;;;;;5099742;28;20303;-72
2022/11/01 11:27:25;;;;;;;9.40;1.10;;;16.80;99.90;;;;;;5082392;28;20063;-69
2022/11/01 11:29:58;;;;;;;8.50;1.38;;;16.80;99.90;;;;;;5099721;28;20323;-73
2022/11/01 11:32:33;;;;;;;6.25;1.25;;;16.80;99.90;;;;;;5100044;28;20020;-71
2022/11/01 11:35:07;;;;;;;6.43;1.30;;;16.60;99.90;;;;;;5099138;28;20028;-69
2022/11/01 11:37:34;;;;;;;8.38;1.27;;;16.80;99.90;;;;;;5099368;28;20028;-70
2022/11/01 11:40:18;;;;;;;7.25;1.25;;;16.70;99.90;;;;;;5098638;28;20403;-70
2022/11/01 11:42:48;;;;;;;7.05;1.10;;;16.80;99.90;;;;;;5099574;28;20028;-72
2022/11/01 11:45:24;;;;;;;5.43;1.35;;;16.70;99.90;;;;;;5065421;28;20032;-70
2022/11/01 11:47:50;;;;;;;9.10;1.27;;;16.70;99.90;;;;;;5098334;28;20438;-71
2022/11/01 11:50:19;;;;;;;5.38;1.20;;;16.70;99.90;;;;;;5098708;28;20108;-71
2022/11/01 11:52:47;;;;;;;7.68;1.23;;;16.70;99.90;;;;;;5099189;28;20100;-69
2022/11/01 11:55:36;;;;;;;6.68;1.00;;;16.70;99.90;;;;;;5098498;28;20027;-71
2022/11/01 11:58:04;;;;;;;8.55;1.30;;;16.80;99.90;;;;;;5099176;28;20089;-72
2022/11/01 12:00:36;;;;;;;9.10;1.20;;;16.80;99.90;;;;;;5099195;28;20085;-71
2022/11/01 12:03:06;;;;;;;5.93;1.75;;;16.70;99.90;;;;;;5098258;28;20032;-72
2022/11/01 12:05:33;;;;;;;8.73;1.25;;;16.80;99.90;;;;;;5098952;28;20093;-73
2022/11/01 12:07:59;;;;;;;8.23;1.08;;;16.90;99.90;;;;;;5098479;28;20097;-74
2022/11/01 12:10:35;;;;;;;6.25;1.30;;;16.80;99.90;;;;;;5099208;28;20020;-75
2022/11/01 12:13:20;;;;;;;8.10;1.23;;;17.00;99.90;;;;;;5099357;28;20024;-67
2022/11/01 12:15:45;;;;;;;8.98;1.20;;;17.10;99.90;;;;;;5098887;28;20075;-69
2022/11/01 12:18:16;;;;;;;9.95;1.42;;;17.10;99.90;;;;;;5098390;28;20068;-71
2022/11/01 12:20:48;;;;;;;5.72;1.10;;;17.00;99.90;;;;;;5099357;28;20040;-73
2022/11/01 12:23:36;;;;;;;7.60;1.07;;;17.00;99.90;;;;;;5098485;28;20058;-72
2022/11/01 12:26:06;;;;;;;5.53;1.27;;;17.20;99.90;;;;;;5098226;28;20035;-74
2022/11/01 12:28:40;;;;;;;7.00;1.25;;;17.20;99.90;;;;;;5098935;28;20032;-74
2022/11/01 12:31:14;;;;;;;7.45;1.70;;;17.20;99.90;;;;;;5098651;28;20032;-74
2022/11/01 12:33:47;;;;;;;7.82;1.40;;;17.30;99.90;;;;;;5080942;28;20044;-73
2022/11/01 12:36:14;;;;;;;8.25;1.77;;;17.30;99.90;;;;;;5098329;28;20064;-71
2022/11/01 12:38:48;;;;;;;5.40;1.15;;;17.30;99.90;;;;;;5080699;28;20119;-72
2022/11/01 12:41:25;;;;;;;10.85;1.73;;;17.40;99.90;;;;;;5099810;28;20364;-71
2022/11/01 12:44:11;;;;;;;12.25;1.38;;;17.40;99.90;;;;;;5098270;28;20039;-71
2022/11/01 12:46:43;;;;;;;5.63;1.08;;;17.50;99.90;;;;;;5097316;28;20093;-74
2022/11/01 12:49:23;;;;;;;4.80;1.02;;;17.60;99.90;;;;;;5097699;28;20043;-68
2022/11/01 12:51:54;;;;;;;6.70;1.02;;;17.60;99.90;;;;;;5081062;28;20024;-74
2022/11/01 12:54:28;;;;;;;8.65;1.30;;;17.60;99.90;;;;;;5097435;28;20024;-70
2022/11/01 12:56:55;;;;;;;5.43;1.20;;;17.50;99.90;;;;;;5097076;28;20117;-72
2022/11/01 12:59:31;;;;;;;7.70;1.55;;;17.60;99.90;;;;;;5097913;28;20105;-73
2022/11/01 13:02:31;;;;;;;10.82;1.33;;;17.50;99.90;;;;;;5098656;28;20035;-67
2022/11/01 13:05:08;;;;;;;7.32;1.23;;;17.70;99.90;;;;;;5097061;28;20050;-73
2022/11/01 13:07:52;;;;;;;8.20;1.10;;;17.80;99.90;;;;;;5098060;28;20063;-73
2022/11/01 13:10:37;;;;;;;4.90;1.10;;;17.60;99.90;;;;;;5097808;28;20020;-73